Time;durP1;ratioP1;P1;durP2;ratioP2;P2;SDS_P1;SDS_P2;PMS_P1;PMS_P2;Temp;Humidity;BMP_temperature;BMP_pressure;BME280_temperature;BME280_humidity;BME280_pressure;Samples;Min_cycle;Max_cycle;Signal;HPM_P1;HPM_P2
2023/07/07 00:02:17;;;;;;;11.82;8.50;;;;;;;23.73;83.86;99794.94;5088305;28;20024;-18
2023/07/07 00:04:42;;;;;;;11.77;7.85;;;;;;;23.53;84.21;99781.88;5088126;28;20093;-19
2023/07/07 00:07:08;;;;;;;11.32;7.68;;;;;;;23.56;84.28;99773.06;5087720;28;20089;-18
2023/07/07 00:09:33;;;;;;;11.20;8.23;;;;;;;23.69;84.17;99793.16;5087715;28;20028;-17
2023/07/07 00:12:01;;;;;;;10.95;8.30;;;;;;;23.38;86.04;99793.97;5087646;28;20023;-17
2023/07/07 00:14:26;;;;;;;;;;;;;;;23.29;86.95;99795.81;5088029;28;20420;-17
2023/07/07 00:16:52;;;;;;;9.77;7.65;;;;;;;23.59;85.42;99791.50;5087804;28;20372;-18
2023/07/07 00:19:18;;;;;;;10.93;8.65;;;;;;;23.83;83.83;99788.44;5087335;28;20028;-19
2023/07/07 00:21:43;;;;;;;12.15;8.40;;;;;;;24.17;81.61;99787.75;5087200;28;20028;-17
2023/07/07 00:24:12;;;;;;;10.35;7.88;;;;;;;23.84;83.86;99784.59;5087649;28;20043;-17
2023/07/07 00:26:38;;;;;;;10.40;8.35;;;;;;;23.84;83.06;99776.41;5087357;28;20089;-20
2023/07/07 00:29:05;;;;;;;11.98;8.95;;;;;;;23.59;83.98;99777.91;5087266;28;20043;-18
2023/07/07 00:31:33;;;;;;;12.07;8.43;;;;;;;23.71;83.25;99785.47;5087477;28;20026;-18
2023/07/07 00:33:59;;;;;;;13.98;9.05;;;;;;;23.92;82.06;99785.75;5087303;28;20029;-17
2023/07/07 00:36:24;;;;;;;14.73;10.02;;;;;;;23.80;81.87;99770.00;5087054;28;20105;-17
2023/07/07 00:38:51;;;;;;;15.18;9.70;;;;;;;23.86;82.00;99788.63;5087082;28;20035;-17
2023/07/07 00:41:17;;;;;;;12.40;9.15;;;;;;;24.22;79.28;99792.25;5086948;28;20032;-17
2023/07/07 00:44:01;;;;;;;12.25;8.85;;;;;;;23.99;79.55;99770.56;5086761;28;20035;-22
2023/07/07 00:46:28;;;;;;;10.40;7.97;;;;;;;23.90;81.59;99787.97;5086356;28;20166;-18
2023/07/07 00:48:54;;;;;;;12.18;7.88;;;;;;;23.85;81.39;99780.75;5086901;28;20531;-18
2023/07/07 00:51:26;;;;;;;11.40;8.23;;;;;;;24.01;80.99;99783.88;5086982;28;20059;-17
2023/07/07 00:53:54;;;;;;;11.10;8.60;;;;;;;23.84;82.29;99795.47;5086875;28;20031;-17
2023/07/07 00:56:28;;;;;;;10.60;8.05;;;;;;;23.65;83.22;99793.78;5085738;28;20023;-17
2023/07/07 00:59:00;;;;;;;11.43;8.25;;;;;;;23.40;84.37;99792.53;5086288;28;20031;-18
2023/07/07 01:01:26;;;;;;;12.52;7.85;;;;;;;23.21;86.06;99784.56;5086117;28;20039;-17
2023/07/07 01:03:55;;;;;;;11.82;8.38;;;;;;;23.29;85.44;99783.00;5086619;28;20028;-17
2023/07/07 01:06:27;;;;;;;15.18;9.85;;;;;;;23.79;82.35;99780.09;5086957;28;20035;-24
2023/07/07 01:09:06;;;;;;;14.32;9.50;;;;;;;23.73;81.32;99766.91;5086508;28;20040;-18
2023/07/07 01:11:36;;;;;;;14.30;10.15;;;;;;;23.72;82.42;99782.44;5086535;28;20034;-17
2023/07/07 01:14:06;;;;;;;15.45;10.45;;;;;;;23.44;83.45;99779.91;5085932;28;20035;-18
2023/07/07 01:17:02;;;;;;;13.70;9.35;;;;;;;23.27;85.35;99791.50;5086177;28;20024;-17
2023/07/07 01:19:46;;;;;;;10.77;8.50;;;;;;;23.50;83.60;99798.81;5086185;28;20032;-18
2023/07/07 01:22:26;;;;;;;10.90;8.40;;;;;;;23.01;86.51;99790.47;5086196;28;20035;-22
2023/07/07 01:25:06;;;;;;;14.30;9.00;;;;;;;23.17;85.42;99788.19;5072921;28;20102;-17
2023/07/07 01:27:42;;;;;;;12.55;8.65;;;;;;;23.17;86.08;99775.44;5082864;28;20055;-20
2023/07/07 01:30:42;;;;;;;12.83;8.97;;;;;;;23.13;86.54;99790.75;5086252;28;20508;-18
2023/07/07 01:33:11;;;;;;;11.80;9.20;;;;;;;23.17;86.05;99777.31;5085482;28;20801;-17
2023/07/07 01:35:37;;;;;;;12.20;9.38;;;;;;;23.13;87.00;99785.31;5085910;28;20107;-19
2023/07/07 01:38:04;;;;;;;12.55;8.95;;;;;;;23.23;86.53;99784.25;5085606;28;20072;-18
2023/07/07 01:40:52;;;;;;;11.18;9.02;;;;;;;23.25;86.24;99773.84;5085057;28;20036;-18
2023/07/07 01:43:29;;;;;;;12.38;9.70;;;;;;;23.39;85.26;99760.97;5085756;28;20530;-17
2023/07/07 01:46:07;;;;;;;11.15;8.80;;;;;;;23.55;84.88;99776.91;5085652;28;20035;-17
2023/07/07 01:48:36;;;;;;;11.40;9.35;;;;;;;23.29;86.09;99774.84;5085762;28;20078;-19
2023/07/07 01:51:07;;;;;;;12.90;8.93;;;;;;;23.27;85.48;99767.00;5085803;28;20032;-17
2023/07/07 01:53:34;;;;;;;12.90;9.60;;;;;;;23.19;85.40;99758.78;5085394;28;20055;-16
2023/07/07 01:56:01;;;;;;;13.02;9.80;;;;;;;23.34;84.87;99776.66;5085586;28;20020;-17
2023/07/07 01:58:30;;;;;;;12.60;9.48;;;;;;;23.00;86.51;99765.19;5085638;28;20032;-17
2023/07/07 02:00:57;;;;;;;16.77;10.35;;;;;;;22.94;86.53;99776.50;5085215;28;20032;-17
2023/07/07 02:03:26;;;;;;;17.35;10.88;;;;;;;22.94;87.03;99769.13;5085754;28;20031;-17
2023/07/07 02:05:52;;;;;;;15.30;10.13;;;;;;;22.66;89.50;99763.81;5085056;28;20031;-17
2023/07/07 02:08:19;;;;;;;13.90;10.27;;;;;;;22.80;88.51;99758.34;5085299;28;20409;-17
2023/07/07 02:10:45;;;;;;;12.35;9.15;;;;;;;23.05;87.52;99764.31;5085157;28;20012;-20
2023/07/07 02:13:10;;;;;;;12.00;9.98;;;;;;;23.14;85.85;99758.91;5085507;28;20032;-17
2023/07/07 02:15:36;;;;;;;13.82;9.68;;;;;;;22.95;87.40;99780.84;5085256;28;20020;-17
2023/07/07 02:18:02;;;;;;;13.88;10.05;;;;;;;22.93;87.99;99777.63;5085039;28;20024;-18
2023/07/07 02:20:28;;;;;;;13.63;9.48;;;;;;;23.03;86.38;99778.19;5084714;28;20016;-17
2023/07/07 02:22:53;;;;;;;15.32;9.80;;;;;;;23.07;86.02;99783.84;5084902;28;20028;-18
2023/07/07 02:25:19;;;;;;;12.98;9.25;;;;;;;22.80;87.74;99779.25;5084935;28;20049;-17
2023/07/07 02:27:46;;;;;;;11.27;8.98;;;;;;;22.87;87.14;99783.16;5084865;28;20036;-21
2023/07/07 02:30:12;;;;;;;;;;;;;;;23.00;86.07;99783.41;5085378;28;20028;-18
2023/07/07 02:32:37;;;;;;;10.70;7.63;;;;;;;22.82;87.28;99786.03;5084684;28;20386;-18
2023/07/07 02:35:04;;;;;;;11.82;8.52;;;;;;;22.65;88.77;99791.28;5084634;28;20086;-18
2023/07/07 02:37:29;;;;;;;11.63;8.60;;;;;;;22.52;89.49;99786.72;5084729;28;20193;-17
2023/07/07 02:39:55;;;;;;;12.40;8.93;;;;;;;22.32;91.00;99791.47;5083842;28;20916;-17
2023/07/07 02:42:21;;;;;;;13.60;8.95;;;;;;;22.14;93.10;99785.00;5084409;28;20028;-18
2023/07/07 02:44:46;;;;;;;17.95;9.93;;;;;;;22.28;91.83;99785.03;5084377;28;20737;-18
2023/07/07 02:47:14;;;;;;;17.75;9.70;;;;;;;22.38;90.37;99786.72;5084850;28;20123;-19
2023/07/07 02:49:40;;;;;;;16.23;8.85;;;;;;;21.83;94.25;99776.66;5084449;28;20044;-17
2023/07/07 02:52:06;;;;;;;12.40;9.30;;;;;;;22.16;92.32;99777.34;5084344;28;20032;-18
2023/07/07 02:54:32;;;;;;;11.18;9.10;;;;;;;22.07;92.37;99785.41;5084367;28;20028;-18
2023/07/07 02:56:57;;;;;;;12.75;10.30;;;;;;;22.18;91.77;99796.06;5084613;28;20028;-17
2023/07/07 02:59:23;;;;;;;18.10;10.23;;;;;;;22.14;91.18;99778.78;5084478;28;20024;-17
2023/07/07 03:01:49;;;;;;;16.55;10.23;;;;;;;22.25;90.69;99794.59;5084031;28;20023;-17
2023/07/07 03:04:14;;;;;;;13.52;9.32;;;;;;;22.23;90.38;99787.81;5084819;28;20028;-21
2023/07/07 03:06:40;;;;;;;15.40;9.68;;;;;;;21.90;92.84;99790.63;5084630;28;20032;-18
2023/07/07 03:09:14;;;;;;;11.90;9.15;;;;;;;21.70;95.09;99796.44;5084533;28;20028;-18
2023/07/07 03:11:39;;;;;;;12.35;9.43;;;;;;;21.65;95.81;99808.19;5085017;28;20061;-18
2023/07/07 03:14:07;;;;;;;12.07;9.40;;;;;;;21.70;94.92;99812.72;5084147;28;20047;-20
2023/07/07 03:16:32;;;;;;;;;;;;;;;21.41;97.11;99802.88;5084683;28;20050;-17
2023/07/07 03:19:04;;;;;;;13.25;9.45;;;;;;;21.45;97.58;99807.47;5084502;28;20329;-18
2023/07/07 03:21:31;;;;;;;12.82;9.43;;;;;;;22.16;92.69;99807.22;5087835;28;20032;-17
2023/07/07 03:23:56;;;;;;;13.40;9.75;;;;;;;22.03;93.02;99810.75;5088757;28;20023;-19
2023/07/07 03:26:24;;;;;;;12.20;9.82;;;;;;;21.99;94.05;99799.69;5087958;28;20024;-17
2023/07/07 03:28:50;;;;;;;12.18;9.32;;;;;;;22.22;93.17;99803.31;5087985;28;20133;-18
2023/07/07 03:31:25;;;;;;;11.63;9.55;;;;;;;22.31;90.67;99778.19;5087858;28;20040;-18
2023/07/07 03:33:53;;;;;;;14.50;9.98;;;;;;;22.10;93.44;99789.44;5087771;28;20061;-17
2023/07/07 03:36:23;;;;;;;15.95;9.77;;;;;;;22.37;91.57;99802.22;5088043;28;20035;-17
2023/07/07 03:38:48;;;;;;;14.63;9.95;;;;;;;22.43;90.64;99790.16;5087888;28;20051;-18
2023/07/07 03:41:36;;;;;;;13.52;10.13;;;;;;;22.65;89.02;99794.00;5088035;28;20064;-21
2023/07/07 03:44:01;;;;;;;;;;;;;;;22.38;90.56;99787.53;5088249;28;20032;-17
2023/07/07 03:46:29;;;;;;;17.80;10.07;;;;;;;22.70;88.58;99810.22;5087855;28;19977;-17
2023/07/07 03:48:54;;;;;;;20.52;11.55;;;;;;;22.61;89.74;99810.13;5088169;28;20305;-18
2023/07/07 03:51:21;;;;;;;19.63;10.15;;;;;;;22.87;87.64;99815.78;5087599;28;20060;-18
2023/07/07 03:53:48;;;;;;;16.38;11.00;;;;;;;22.66;89.53;99814.66;5087869;28;20027;-20
2023/07/07 03:56:15;;;;;;;25.95;11.55;;;;;;;22.67;89.37;99813.53;5088069;28;20591;-22
2023/07/07 03:58:43;;;;;;;23.02;12.50;;;;;;;22.81;88.64;99813.50;5087899;28;20527;-17
2023/07/07 04:01:12;;;;;;;14.07;10.15;;;;;;;22.74;88.04;99796.78;5088005;28;20404;-18
2023/07/07 04:03:38;;;;;;;15.02;10.20;;;;;;;22.44;91.63;99815.41;5087284;28;20039;-18
2023/07/07 04:06:04;;;;;;;15.95;10.82;;;;;;;22.33;91.62;99817.53;5087971;28;20028;-17
2023/07/07 04:08:30;;;;;;;14.25;10.68;;;;;;;21.90;95.22;99809.63;5087338;28;20031;-21
2023/07/07 04:11:05;;;;;;;14.88;9.80;;;;;;;21.85;96.71;99807.03;5087591;28;20092;-18
2023/07/07 04:13:36;;;;;;;12.55;9.98;;;;;;;21.79;97.50;99789.22;5087734;28;20028;-18
2023/07/07 04:16:05;;;;;;;11.90;9.80;;;;;;;21.83;98.78;99801.91;5087236;28;20103;-17
2023/07/07 04:18:32;;;;;;;11.15;8.90;;;;;;;21.90;98.35;99806.91;5087482;28;20142;-17
2023/07/07 04:21:05;;;;;;;13.13;10.18;;;;;;;22.24;95.39;99794.88;5087273;28;20115;-18
2023/07/07 04:23:31;;;;;;;11.10;9.18;;;;;;;22.66;93.04;99806.50;5086946;28;20493;-17
2023/07/07 04:25:56;;;;;;;14.07;10.20;;;;;;;22.98;91.01;99810.13;5086941;28;20039;-18
2023/07/07 04:28:22;;;;;;;13.30;10.00;;;;;;;22.91;91.21;99824.16;5086906;28;20131;-18
2023/07/07 04:30:55;;;;;;;12.43;9.68;;;;;;;22.92;90.23;99819.50;5086900;28;20035;-18
2023/07/07 04:33:22;;;;;;;12.77;9.00;;;;;;;23.09;89.09;99830.56;5086370;28;20059;-18
2023/07/07 04:35:55;;;;;;;18.00;10.73;;;;;;;23.23;87.77;99827.75;5087121;28;20527;-17
2023/07/07 04:38:30;;;;;;;15.02;10.70;;;;;;;23.41;86.48;99828.69;5086912;28;20464;-17
2023/07/07 04:41:25;;;;;;;12.68;10.45;;;;;;;23.10;88.14;99832.16;5086771;28;20028;-17
2023/07/07 04:43:57;;;;;;;12.93;9.57;;;;;;;23.13;89.28;99831.56;5084187;28;20039;-19
2023/07/07 04:46:31;;;;;;;12.93;9.60;;;;;;;23.32;88.84;99833.28;5087018;28;20016;-17
2023/07/07 04:48:57;;;;;;;15.35;10.60;;;;;;;23.43;88.02;99840.06;5086504;28;20028;-17
2023/07/07 04:51:23;;;;;;;13.60;10.45;;;;;;;23.30;89.53;99832.78;5086910;28;20035;-17
2023/07/07 04:53:51;;;;;;;12.00;9.45;;;;;;;23.59;87.73;99837.78;5086491;28;20093;-17
2023/07/07 04:56:20;;;;;;;14.43;9.90;;;;;;;23.49;89.11;99836.09;5086653;28;20083;-20
2023/07/07 04:58:48;;;;;;;14.48;9.68;;;;;;;23.73;87.84;99838.50;5086692;28;20027;-22
2023/07/07 05:01:19;;;;;;;14.13;9.98;;;;;;;23.79;86.80;99836.47;5086599;28;20028;-17
2023/07/07 05:03:52;;;;;;;17.10;10.32;;;;;;;23.99;86.62;99835.94;5086357;28;20020;-21
2023/07/07 05:06:19;;;;;;;12.43;9.50;;;;;;;23.81;87.44;99834.25;5086389;28;20024;-17
2023/07/07 05:08:45;;;;;;;12.48;9.25;;;;;;;24.08;84.30;99844.13;5086594;28;20043;-21
2023/07/07 05:11:12;;;;;;;15.27;8.52;;;;;;;24.29;80.67;99838.09;5086105;28;20365;-17
2023/07/07 05:13:41;;;;;;;13.70;7.80;;;;;;;24.58;78.51;99843.00;5086675;28;20040;-17
2023/07/07 05:16:14;;;;;;;10.98;7.90;;;;;;;24.73;78.26;99845.28;5085994;28;20115;-17
2023/07/07 05:18:40;;;;;;;10.60;7.43;;;;;;;25.00;77.11;99840.66;5085910;28;20500;-17
2023/07/07 05:21:07;;;;;;;9.30;7.05;;;;;;;25.17;74.93;99834.38;5085994;28;20119;-17
2023/07/07 05:23:33;;;;;;;;;;;;;;;25.16;76.54;99833.59;5086318;28;20179;-18
2023/07/07 05:25:59;;;;;;;12.93;7.57;;;;;;;25.44;75.68;99844.97;5085817;28;20032;-17
2023/07/07 05:28:24;;;;;;;10.80;7.07;;;;;;;25.42;74.52;99846.44;5085895;28;20052;-18
2023/07/07 05:30:49;;;;;;;10.27;6.97;;;;;;;25.67;71.77;99848.31;5080844;28;20029;-17
2023/07/07 05:33:15;;;;;;;9.05;6.80;;;;;;;25.63;72.11;99850.06;5083601;28;20028;-17
2023/07/07 05:35:52;;;;;;;10.63;6.93;;;;;;;25.81;70.09;99825.47;5085810;28;20023;-18
2023/07/07 05:38:18;;;;;;;9.50;6.93;;;;;;;25.92;70.99;99854.03;5085800;28;20035;-19
2023/07/07 05:40:45;;;;;;;11.43;7.75;;;;;;;26.12;70.10;99840.78;5085921;28;20024;-18
2023/07/07 05:43:20;;;;;;;11.85;8.00;;;;;;;26.34;68.41;99850.66;5085212;28;20496;-17
2023/07/07 05:45:46;;;;;;;9.95;8.05;;;;;;;26.45;68.37;99857.34;5086076;28;20035;-18
2023/07/07 05:48:17;;;;;;;11.23;6.82;;;;;;;26.46;66.36;99839.81;5085513;28;20035;-16
2023/07/07 05:50:45;;;;;;;12.00;8.73;;;;;;;26.46;67.61;99862.47;5085620;28;20039;-17
2023/07/07 05:53:11;;;;;;;12.07;9.57;;;;;;;26.65;66.63;99855.78;5085734;28;20062;-18
2023/07/07 05:55:37;;;;;;;10.02;7.15;;;;;;;26.83;65.94;99853.75;5085321;28;20112;-17
2023/07/07 05:58:04;;;;;;;14.57;11.25;;;;;;;26.88;64.40;99850.00;5085814;28;20024;-17
2023/07/07 06:00:32;;;;;;;17.57;12.57;;;;;;;26.74;65.13;99840.13;5085368;28;20024;-18
2023/07/07 06:02:58;;;;;;;12.27;9.82;;;;;;;26.78;65.52;99851.19;5085108;28;20812;-18
2023/07/07 06:05:27;;;;;;;10.63;6.55;;;;;;;26.97;64.69;99853.47;5085391;28;20024;-17
2023/07/07 06:07:54;;;;;;;10.75;6.97;;;;;;;26.55;65.25;99842.47;5085506;28;20089;-17
2023/07/07 06:10:21;;;;;;;9.95;6.85;;;;;;;26.60;64.17;99847.78;5085300;28;20028;-17
2023/07/07 06:12:47;;;;;;;9.57;6.50;;;;;;;26.63;64.20;99844.38;5084995;28;20393;-19
2023/07/07 06:15:13;;;;;;;8.90;7.07;;;;;;;26.81;65.78;99854.06;5085436;28;20035;-17
2023/07/07 06:17:38;;;;;;;8.98;6.80;;;;;;;27.18;64.64;99848.00;5085119;28;20035;-19
2023/07/07 06:20:07;;;;;;;10.32;6.75;;;;;;;27.42;62.93;99850.84;5084826;28;20284;-17
2023/07/07 06:22:34;;;;;;;11.45;7.43;;;;;;;27.41;63.62;99840.22;5085213;28;20020;-19
2023/07/07 06:25:02;;;;;;;;;;;;;;;27.73;63.83;99854.25;5085345;28;20521;-18
2023/07/07 06:27:28;;;;;;;10.00;6.75;;;;;;;27.51;61.86;99852.69;5084799;28;19935;-18
2023/07/07 06:29:56;;;;;;;8.57;6.88;;;;;;;27.51;62.92;99852.69;5084964;28;20024;-17
2023/07/07 06:32:22;;;;;;;10.10;6.63;;;;;;;27.54;62.11;99841.06;5084768;28;20044;-17
2023/07/07 06:34:48;;;;;;;10.52;6.47;;;;;;;27.57;61.53;99854.88;5084661;28;20252;-18
2023/07/07 06:37:13;;;;;;;14.35;9.85;;;;;;;27.94;60.86;99854.97;5084963;28;20504;-17
2023/07/07 06:39:39;;;;;;;9.60;7.25;;;;;;;28.05;60.76;99869.03;5084628;28;20406;-18
2023/07/07 06:42:16;;;;;;;12.98;6.63;;;;;;;28.24;58.61;99863.00;5084632;28;20027;-17
2023/07/07 06:44:42;;;;;;;11.93;7.45;;;;;;;28.08;59.48;99862.88;5084732;28;20020;-18
2023/07/07 06:47:17;;;;;;;10.20;6.75;;;;;;;28.16;59.10;99858.44;5085112;28;20024;-17
2023/07/07 06:49:43;;;;;;;10.48;7.15;;;;;;;28.29;60.61;99853.75;5084857;28;20027;-18
2023/07/07 06:52:09;;;;;;;8.52;6.72;;;;;;;28.05;59.14;99853.41;5084562;28;20012;-17
2023/07/07 06:54:34;;;;;;;8.00;6.63;;;;;;;28.05;59.92;99856.16;5083808;28;20059;-18
2023/07/07 06:57:03;;;;;;;11.25;7.07;;;;;;;28.18;59.16;99867.13;5084419;28;20027;-17
2023/07/07 06:59:31;;;;;;;10.15;6.85;;;;;;;28.21;60.09;99858.19;5084405;28;20075;-18
2023/07/07 07:01:56;;;;;;;9.75;6.57;;;;;;;28.31;59.75;99865.97;5084625;28;20138;-17
2023/07/07 07:04:22;;;;;;;8.38;6.22;;;;;;;28.21;59.03;99855.44;5084087;28;20468;-19
2023/07/07 07:06:48;;;;;;;8.23;6.40;;;;;;;28.26;60.13;99852.50;5084356;28;20032;-18
2023/07/07 07:09:14;;;;;;;8.38;6.45;;;;;;;28.60;58.58;99851.22;5066327;28;20030;-17
2023/07/07 07:11:39;;;;;;;10.57;6.43;;;;;;;28.74;58.99;99861.03;5082311;28;20036;-18
2023/07/07 07:14:05;;;;;;;10.38;6.80;;;;;;;28.95;57.70;99855.38;5084394;28;20217;-18
2023/07/07 07:16:30;;;;;;;11.65;6.60;;;;;;;28.87;57.96;99853.56;5084346;28;20024;-17
2023/07/07 07:18:55;;;;;;;10.60;6.57;;;;;;;29.07;56.94;99860.81;5084124;28;20028;-18
2023/07/07 07:21:23;;;;;;;8.38;6.45;;;;;;;29.27;57.32;99863.75;5084118;28;20506;-17
2023/07/07 07:23:50;;;;;;;9.68;6.97;;;;;;;29.37;55.20;99838.53;5084140;28;20055;-17
2023/07/07 07:26:17;;;;;;;13.93;6.88;;;;;;;29.96;54.66;99853.44;5084549;28;20028;-21
2023/07/07 07:28:42;;;;;;;7.63;6.18;;;;;;;29.91;54.15;99857.22;5084230;28;20043;-18
2023/07/07 07:31:08;;;;;;;7.75;6.05;;;;;;;30.08;52.68;99855.28;5084220;28;20040;-18
2023/07/07 07:33:33;;;;;;;9.70;6.88;;;;;;;29.71;54.65;99853.59;5083558;28;20048;-18
2023/07/07 07:35:58;;;;;;;9.48;6.68;;;;;;;29.86;53.94;99852.00;5079057;28;20021;-18
2023/07/07 07:38:26;;;;;;;9.35;6.43;;;;;;;29.77;53.34;99857.69;5075324;28;20286;-19
2023/07/07 07:40:53;;;;;;;9.18;6.13;;;;;;;29.90;53.30;99841.91;5063240;28;20028;-19
2023/07/07 07:43:21;;;;;;;10.10;7.53;;;;;;;29.98;51.39;99853.88;5051977;28;20024;-20
2023/07/07 07:45:47;;;;;;;10.10;6.35;;;;;;;29.96;50.02;99859.72;5083829;28;20527;-20
2023/07/07 07:48:12;;;;;;;8.55;5.82;;;;;;;30.07;50.08;99864.69;5083834;28;20028;-19
2023/07/07 07:50:38;;;;;;;9.32;6.45;;;;;;;30.33;48.72;99864.97;5083627;28;20028;-18
2023/07/07 07:53:03;;;;;;;9.32;6.38;;;;;;;30.63;49.17;99854.25;5083723;28;20039;-18
2023/07/07 07:55:29;;;;;;;9.13;6.50;;;;;;;30.55;49.45;99857.22;5083689;28;20256;-20
2023/07/07 07:57:57;;;;;;;10.00;7.68;;;;;;;30.34;50.82;99861.06;5083748;28;20031;-18
2023/07/07 08:00:22;;;;;;;8.80;6.18;;;;;;;30.72;50.21;99850.50;5083400;28;20027;-18
2023/07/07 08:02:50;;;;;;;9.32;6.45;;;;;;;30.83;48.23;99857.84;5083532;28;20021;-19
2023/07/07 08:05:16;;;;;;;7.78;6.25;;;;;;;30.94;48.16;99860.03;5083777;28;20020;-19
2023/07/07 08:07:42;;;;;;;8.35;6.22;;;;;;;31.13;47.37;99860.03;5086993;28;20047;-18
2023/07/07 08:10:08;;;;;;;8.38;6.25;;;;;;;31.04;45.15;99848.44;5085008;28;20016;-18
2023/07/07 08:12:34;;;;;;;10.07;6.90;;;;;;;31.22;46.95;99862.56;5086955;28;20032;-18
2023/07/07 08:14:59;;;;;;;8.18;5.75;;;;;;;31.23;45.86;99856.69;5087358;28;20081;-18
2023/07/07 08:17:25;;;;;;;8.43;5.78;;;;;;;31.00;44.89;99861.34;5086153;28;20525;-18
2023/07/07 08:19:50;;;;;;;9.45;6.05;;;;;;;31.20;44.90;99865.69;5086924;28;20427;-19
2023/07/07 08:22:20;;;;;;;9.20;5.95;;;;;;;31.51;44.54;99863.94;5087150;28;20016;-18
2023/07/07 08:24:49;;;;;;;8.40;5.90;;;;;;;31.64;43.59;99854.34;5086976;28;20020;-18
2023/07/07 08:27:16;;;;;;;8.23;6.63;;;;;;;31.57;44.49;99856.97;5086978;28;20044;-18
2023/07/07 08:29:42;;;;;;;8.73;5.93;;;;;;;31.56;45.82;99865.59;5086632;28;20036;-18
2023/07/07 08:32:14;;;;;;;8.73;6.38;;;;;;;31.60;43.20;99863.69;5083958;28;20032;-18
2023/07/07 08:34:45;;;;;;;8.70;6.82;;;;;;;32.01;44.77;99853.81;5086702;28;20678;-18
2023/07/07 08:37:11;;;;;;;8.90;6.85;;;;;;;31.86;44.35;99845.66;5086428;28;20028;-18
2023/07/07 08:39:43;;;;;;;8.43;5.97;;;;;;;32.15;43.65;99857.97;5086634;28;20662;-19
2023/07/07 08:42:28;;;;;;;8.60;6.20;;;;;;;32.03;42.92;99857.00;5086562;28;20036;-20
2023/07/07 08:44:59;;;;;;;9.07;6.70;;;;;;;32.17;42.71;99839.09;5086600;28;20572;-20
2023/07/07 08:47:34;;;;;;;7.97;6.20;;;;;;;32.30;42.23;99834.94;5082736;28;20096;-18
2023/07/07 08:50:30;;;;;;;7.85;6.25;;;;;;;32.42;43.71;99848.50;5086343;28;20084;-18
2023/07/07 08:53:02;;;;;;;9.30;6.55;;;;;;;32.40;43.24;99834.28;5086218;28;20031;-18
2023/07/07 08:55:36;;;;;;;9.10;6.15;;;;;;;32.60;41.74;99823.16;5086247;28;20081;-19
2023/07/07 08:58:19;;;;;;;9.40;6.35;;;;;;;32.46;41.36;99823.72;5086272;28;20036;-19
2023/07/07 09:01:15;;;;;;;9.35;6.28;;;;;;;32.77;41.03;99828.09;5086059;28;20089;-18
2023/07/07 09:04:17;;;;;;;9.90;6.20;;;;;;;32.93;40.67;99824.38;5086477;28;20578;-18
2023/07/07 09:06:51;;;;;;;7.88;6.07;;;;;;;33.00;40.13;99816.19;5086237;28;20051;-19
2023/07/07 09:09:45;;;;;;;9.05;5.90;;;;;;;33.00;40.19;99810.66;5086516;28;20020;-19
2023/07/07 09:12:26;;;;;;;8.27;6.30;;;;;;;33.24;39.97;99817.63;5054638;28;20148;-18
2023/07/07 09:14:55;;;;;;;10.73;6.03;;;;;;;33.13;38.85;99806.47;5086197;28;20024;-21
2023/07/07 09:17:38;;;;;;;8.38;6.50;;;;;;;33.00;39.55;99797.63;5085398;28;20032;-23
2023/07/07 09:20:05;;;;;;;8.55;6.47;;;;;;;33.38;39.30;99806.72;5085925;28;20088;-18
2023/07/07 09:22:40;;;;;;;7.20;5.60;;;;;;;33.38;37.74;99811.47;5085544;28;20035;-18
2023/07/07 09:25:15;;;;;;;8.98;6.25;;;;;;;32.69;38.87;99826.44;5083519;28;20543;-18
2023/07/07 09:27:58;;;;;;;8.20;5.95;;;;;;;32.74;38.73;99811.53;5085991;28;20047;-18
2023/07/07 09:30:31;;;;;;;9.45;7.32;;;;;;;33.33;37.82;99814.59;5085730;28;20635;-20
2023/07/07 09:32:57;;;;;;;9.32;6.88;;;;;;;33.59;37.66;99822.75;5085904;28;20035;-19
2023/07/07 09:35:27;;;;;;;7.30;5.85;;;;;;;33.59;38.83;99819.16;5083957;28;20032;-19
2023/07/07 09:38:14;;;;;;;9.38;5.85;;;;;;;33.68;37.30;99824.44;5085633;28;20043;-19
2023/07/07 09:41:09;;;;;;;10.88;5.80;;;;;;;33.55;36.99;99821.91;5085550;28;20039;-18
2023/07/07 09:44:09;;;;;;;7.75;5.70;;;;;;;33.80;35.41;99824.13;5082396;28;20044;-18
2023/07/07 09:46:53;;;;;;;7.68;5.97;;;;;;;33.23;37.43;99810.53;5085318;28;20063;-19
2023/07/07 09:49:42;;;;;;;8.02;5.68;;;;;;;33.76;36.98;99809.47;5085571;28;20055;-19
2023/07/07 09:52:41;;;;;;;7.68;6.15;;;;;;;34.26;35.76;99809.84;5084979;28;20032;-19
2023/07/07 09:55:19;;;;;;;8.55;6.15;;;;;;;34.49;36.45;99789.41;5085028;28;20067;-19
2023/07/07 09:57:58;;;;;;;9.65;5.75;;;;;;;34.60;36.18;99798.56;5085125;28;20088;-18
2023/07/07 10:00:26;;;;;;;8.80;5.75;;;;;;;34.33;35.09;99809.91;5076511;28;20135;-19
2023/07/07 10:02:54;;;;;;;7.85;6.28;;;;;;;34.13;35.63;99812.16;5083665;28;20522;-22
2023/07/07 10:05:31;;;;;;;7.47;5.68;;;;;;;34.38;36.55;99795.69;5083396;28;20066;-18
2023/07/07 10:08:00;;;;;;;;;;;;;;;34.08;34.98;99787.56;5085559;28;20028;-21
2023/07/07 10:10:28;;;;;;;9.10;6.10;;;;;;;33.49;34.52;99775.63;5084809;28;19919;-20
2023/07/07 10:12:56;;;;;;;7.45;5.82;;;;;;;33.37;36.71;99790.53;5085144;28;20040;-19
2023/07/07 10:15:47;;;;;;;8.70;6.35;;;;;;;34.06;37.00;99783.59;5084822;28;20656;-21
2023/07/07 10:18:22;;;;;;;8.77;6.32;;;;;;;34.24;35.12;99770.69;5084942;28;20036;-19
2023/07/07 10:20:50;;;;;;;6.80;5.70;;;;;;;34.01;35.27;99774.47;5084966;28;20738;-19
2023/07/07 10:23:16;;;;;;;7.22;5.75;;;;;;;34.45;33.51;99758.16;5085155;28;20028;-18
2023/07/07 10:25:44;;;;;;;8.70;5.97;;;;;;;34.46;34.09;99751.44;5084690;28;20035;-18
2023/07/07 10:28:14;;;;;;;8.48;5.95;;;;;;;34.33;35.72;99737.94;5084362;28;20591;-18
2023/07/07 10:30:41;;;;;;;15.27;10.10;;;;;;;34.67;33.37;99757.09;5084873;28;20390;-18
2023/07/07 10:33:13;;;;;;;30.52;24.95;;;;;;;35.03;33.83;99751.66;5084552;28;20620;-19
2023/07/07 10:35:38;;;;;;;8.68;6.80;;;;;;;35.48;32.26;99754.13;5084637;28;20092;-18
2023/07/07 10:38:05;;;;;;;8.02;5.35;;;;;;;35.10;31.10;99757.19;5084910;28;20028;-19
2023/07/07 10:40:34;;;;;;;11.27;9.43;;;;;;;35.16;32.70;99760.41;5084410;28;20035;-18
2023/07/07 10:43:02;;;;;;;15.82;7.15;;;;;;;35.10;33.76;99751.66;5085007;28;20036;-18
2023/07/07 10:45:28;;;;;;;18.30;14.82;;;;;;;35.38;32.20;99756.47;5084252;28;20060;-19
2023/07/07 10:47:54;;;;;;;8.73;6.78;;;;;;;35.65;30.68;99753.34;5084346;28;20092;-19
2023/07/07 10:50:32;;;;;;;;;;;;;;;;;;;;;
2023/07/07 10:53:12;;;;;;;8.63;5.88;;;;;;;36.35;29.53;99769.47;5079635;28;20043;-20
2023/07/07 10:55:58;;;;;;;7.07;4.85;;;;;;;34.97;34.11;99775.38;5084366;28;20044;-19
2023/07/07 10:59:00;;;;;;;8.60;4.65;;;;;;;34.01;36.40;99774.47;5084189;28;20168;-18
2023/07/07 11:01:42;;;;;;;8.27;4.28;;;;;;;32.73;38.68;99766.53;5084800;28;20047;-19
2023/07/07 11:04:33;;;;;;;8.68;4.88;;;;;;;32.68;37.67;99753.06;5084194;28;20081;-19
2023/07/07 11:07:22;;;;;;;11.27;5.03;;;;;;;32.37;38.89;99757.00;5084615;28;20056;-19
2023/07/07 11:09:59;;;;;;;8.57;5.50;;;;;;;32.37;40.06;99757.78;5084257;28;20107;-19
2023/07/07 11:12:43;;;;;;;8.10;5.43;;;;;;;32.40;39.43;99754.25;5084528;28;20059;-18
2023/07/07 11:15:17;;;;;;;10.65;5.57;;;;;;;31.72;39.81;99758.78;5084143;28;20021;-19
2023/07/07 11:18:25;;;;;;;8.95;5.45;;;;;;;31.91;40.34;99766.16;5084144;28;20059;-19
2023/07/07 11:21:17;;;;;;;9.13;6.20;;;;;;;31.90;39.28;99794.91;5084110;28;20043;-24
2023/07/07 11:23:43;;;;;;;10.80;6.85;;;;;;;31.89;40.76;99795.28;5084321;28;20032;-18
2023/07/07 11:26:29;;;;;;;9.25;6.10;;;;;;;31.72;41.50;99796.56;5084217;28;20435;-19
2023/07/07 11:29:06;;;;;;;18.63;6.95;;;;;;;31.51;47.85;99764.75;5083931;28;20083;-21
2023/07/07 11:32:17;;;;;;;11.05;7.93;;;;;;;30.70;49.83;99784.00;5084283;28;20035;-20
2023/07/07 11:34:46;;;;;;;10.55;6.55;;;;;;;30.81;48.35;99794.06;4982370;28;20037;-18
2023/07/07 11:37:23;;;;;;;9.77;6.60;;;;;;;30.56;55.20;99779.00;4982454;28;20104;-18
2023/07/07 11:40:03;;;;;;;8.20;6.57;;;;;;;29.85;58.18;99781.69;5044048;28;20552;-19
2023/07/07 11:42:44;;;;;;;7.18;4.85;;;;;;;28.95;58.57;99775.75;5087919;28;20047;-19
2023/07/07 11:45:32;;;;;;;7.57;4.63;;;;;;;29.24;55.24;99772.69;5088161;28;20039;-18
2023/07/07 11:48:50;;;;;;;8.88;5.63;;;;;;;29.11;56.14;99759.38;5087982;28;20021;-19